Home > Products > Valid Products > MTR

000
SAUS45 KMSO 301354
MTRP69
METAR KP69 301352Z AUTO 34004KT 11/09 A3028 RMK AO1 SLP243 T01110089





000
SAUS45 KMSO 301253
MTRP69
METAR KP69 301252Z AUTO 33003KT 11/09 A3027 RMK AO1 SLP238 T01110089





000
SAUS45 KMSO 301253
MTRP69
METAR KP69 301252Z AUTO 33003KT 11/09 A3027 RMK AO1 SLP238 T01110089





000
SAUS45 KMSO 301154
MTRP69
METAR KP69 301152Z AUTO 00000KT 12/09 A3026 RMK AO1 SLP226 T01170089
10167 20117 53011





000
SAUS45 KMSO 301154
MTRP69
METAR KP69 301152Z AUTO 00000KT 12/09 A3026 RMK AO1 SLP226 T01170089
10167 20117 53011





000
SAUS45 KMSO 301054
MTRP69
METAR KP69 301052Z AUTO 32004KT 12/09 A3024 RMK AO1 SLP218 T01220089





000
SAUS45 KMSO 300954
MTRP69
METAR KP69 300952Z AUTO 32003KT 13/09 A3024 RMK AO1 SLP215 T01280094





000
SAUS45 KMSO 300853
MTRP69
METAR KP69 300852Z AUTO 31004KT 14/09 A3022 RMK AO1 SLP212 T01390094
51015





000
SAUS45 KMSO 300753
MTRP69
METAR KP69 300752Z AUTO 32004KT 14/10 A3021 RMK AO1 SLP210 T01440100
403560094





000
SAUS45 KMSO 300654
MTRP69
METAR KP69 300652Z AUTO 32004KT 16/11 A3020 RMK AO1 SLP207 T01560106





000
SAUS45 KMSO 300654
MTRP69
METAR KP69 300652Z AUTO 32004KT 16/11 A3020 RMK AO1 SLP207 T01560106





000
SAUS45 KMSO 300554
MTRP69
METAR KP69 300552Z AUTO 34004KT 17/10 A3018 RMK AO1 SLP202 T01670100
10317 20167 51027





000
SAUS45 KMSO 300554
MTRP69
METAR KP69 300552Z AUTO 34004KT 17/10 A3018 RMK AO1 SLP202 T01670100
10317 20167 51027





000
SAUS45 KMSO 300454
MTRP69
METAR KP69 300452Z AUTO 34004KT 18/11 A3016 RMK AO1 SLP199 T01780106





000
SAUS45 KMSO 300353
MTRP69
METAR KP69 300352Z AUTO 36003KT 18/11 A3013 RMK AO1 SLP191 T01830111





000
SAUS45 KMSO 300254
MTRP69
METAR KP69 300252Z AUTO 00000KT 21/11 A3009 RMK AO1 SLP181 T02060106
53004





000
SAUS45 KMSO 300154
MTRP69
METAR KP69 300152Z AUTO 35005KT 23/09 A3008 RMK AO1 SLP174 T02280089





000
SAUS45 KMSO 300054
MTRP69
METAR KP69 300052Z AUTO 36003KT 25/09 A3008 RMK AO1 SLP174 T02500094





000
SAUS45 KMSO 292354
MTRP69
METAR KP69 292352Z AUTO 00000KT 32/07 A3008 RMK AO1 SLP167 T03170072
10356 20222 56018





000
SAUS45 KMSO 292254
MTRP69
METAR KP69 292252Z AUTO 00000KT 34/03 A3009 RMK AO1 SLP168 T03390033





000
SAUS45 KMSO 292153
MTRP69
METAR KP69 292152Z AUTO VRB03KT 33/06 A3011 RMK AO1 SLP176 T03330061





000
SAUS45 KMSO 292054
MTRP69
METAR KP69 292052Z AUTO 00000KT 33/05 A3014 RMK AO1 SLP185 T03280050
56030





000
SAUS45 KMSO 292054
MTRP69
METAR KP69 292052Z AUTO 00000KT 33/05 A3014 RMK AO1 SLP185 T03280050
56030





000
SAUS45 KMSO 291953
MTRP69
METAR KP69 291952Z AUTO VRB03KT 30/06 A3016 RMK AO1 SLP193 T03000061





000
SAUS45 KMSO 291854
MTRP69
METAR KP69 291852Z AUTO 35003KT 26/07 A3019 RMK AO1 SLP208 T02560072





000
SAUS45 KMSO 291854
MTRP69
METAR KP69 291852Z AUTO 35003KT 26/07 A3019 RMK AO1 SLP208 T02560072





000
SAUS45 KMSO 291754
MTRP69
METAR KP69 291752Z AUTO 36003KT 22/07 A3023 RMK AO1 SLP224 T02220072
10222 20094 58029





000
SAUS45 KMSO 291654
MTRP69
METAR KP69 291652Z AUTO 36003KT 18/08 A3026 RMK AO1 SLP238 T01780083
$





000
SAUS45 KMSO 291553
MTRP69
METAR KP69 291552Z AUTO 36003KT 14/08 A3030 RMK AO1 SLP252 T01440083





000
SAUS45 KMSO 291454
MTRP69
METAR KP69 291452Z AUTO 35003KT 12/08 A3032 RMK AO1 SLP260 T01170078
50007





000
SAUS45 KMSO 291454
MTRP69
METAR KP69 291452Z AUTO 35003KT 12/08 A3032 RMK AO1 SLP260 T01170078
50007





000
SAUS45 KMSO 291354
MTRP69
METAR KP69 291352Z AUTO 00000KT 10/08 A3032 RMK AO1 SLP261 T01000078





000
SAUS45 KMSO 291354
MTRP69
METAR KP69 291352Z AUTO 00000KT 10/08 A3032 RMK AO1 SLP261 T01000078





000
SAUS45 KMSO 291254
MTRP69
METAR KP69 291252Z AUTO 32004KT 09/08 A3031 RMK AO1 SLP255 T00940078





000
SAUS45 KMSO 291254
MTRP69
METAR KP69 291252Z AUTO 32004KT 09/08 A3031 RMK AO1 SLP255 T00940078





000
SAUS45 KMSO 291154
MTRP69
METAR KP69 291152Z AUTO 35003KT 10/08 A3030 RMK AO1 SLP247 T01000078
10139 20100 52009





000
SAUS45 KMSO 291054
MTRP69
METAR KP69 291052Z AUTO VRB03KT 11/08 A3029 RMK AO1 SLP240 T01060083





000
SAUS45 KMSO 290953
MTRP69
METAR KP69 290952Z AUTO 33005KT 11/09 A3028 RMK AO1 SLP236 T01110089





000
SAUS45 KMSO 290953
MTRP69
METAR KP69 290952Z AUTO 33005KT 11/09 A3028 RMK AO1 SLP236 T01110089





000
SAUS45 KMSO 290853
MTRP69
METAR KP69 290852Z AUTO 32003KT 12/09 A3027 RMK AO1 SLP233 T01170089
51011





000
SAUS45 KMSO 290754
MTRP69
METAR KP69 290752Z AUTO VRB03KT 13/09 A3026 RMK AO1 SLP232 T01280089
403000111





000
SAUS45 KMSO 290653
MTRP69
METAR KP69 290652Z AUTO 32005KT 13/09 A3025 RMK AO1 SLP233 T01330094





000
SAUS45 KMSO 290653
MTRP69
METAR KP69 290652Z AUTO 32005KT 13/09 A3025 RMK AO1 SLP233 T01330094





000
SAUS45 KMSO 290554
MTRP69
METAR KP69 290552Z AUTO 35003KT 14/10 A3024 RMK AO1 SLP228 T01390100
10267 20139 51022





000
SAUS45 KMSO 290554
MTRP69
METAR KP69 290552Z AUTO 35003KT 14/10 A3024 RMK AO1 SLP228 T01390100
10267 20139 51022





000
SAUS45 KMSO 290454
MTRP69
METAR KP69 290452Z AUTO 34003KT 16/10 A3022 RMK AO1 SLP225 T01560100





000
SAUS45 KMSO 290354
MTRP69
METAR KP69 290352Z AUTO 36003KT 16/11 A3020 RMK AO1 SLP218 T01610106





000
SAUS45 KMSO 290254
MTRP69
METAR KP69 290252Z AUTO 00000KT 18/11 A3017 RMK AO1 SLP207 T01780106
53004





000
SAUS45 KMSO 290154
MTRP69
METAR KP69 290152Z AUTO 36003KT 20/09 A3015 RMK AO1 SLP201 T02000094





000
SAUS45 KMSO 290054
MTRP69
METAR KP69 290052Z AUTO 00000KT 23/09 A3015 RMK AO1 SLP198 T02280089





000
SAUS45 KMSO 282354
MTRP69
METAR KP69 282352Z AUTO VRB03KT 26/09 A3016 RMK AO1 SLP197 T02610089
10300 20189 56014





000
SAUS45 KMSO 282254
MTRP69
METAR KP69 282252Z AUTO VRB03KT 29/06 A3017 RMK AO1 SLP197 T02890061





000
SAUS45 KMSO 282254
MTRP69
METAR KP69 282252Z AUTO VRB03KT 29/06 A3017 RMK AO1 SLP197 T02890061





000
SAUS45 KMSO 282154
MTRP69
METAR KP69 282152Z AUTO VRB03KT 29/06 A3019 RMK AO1 SLP203 T02940061





000
SAUS45 KMSO 282054
MTRP69
METAR KP69 282052Z AUTO VRB03KT 28/07 A3020 RMK AO1 SLP209 T02780067
56024





000
SAUS45 KMSO 281954
MTRP69
METAR KP69 281952Z AUTO 35004KT 25/08 A3022 RMK AO1 SLP218 T02500083





000
SAUS45 KMSO 281954
MTRP69
METAR KP69 281952Z AUTO 35004KT 25/08 A3022 RMK AO1 SLP218 T02500083





000
SAUS45 KMSO 281854
MTRP69
METAR KP69 281852Z AUTO 35003KT 21/11 A3024 RMK AO1 SLP228 T02110106





000
SAUS45 KMSO 281754
MTRP69
METAR KP69 281752Z AUTO VRB03KT 19/10 A3027 RMK AO1 SLP243 T01890100
10189 20111 58012





000
SAUS45 KMSO 281754
MTRP69
METAR KP69 281752Z AUTO VRB03KT 19/10 A3027 RMK AO1 SLP243 T01890100
10189 20111 58012





000
SAUS45 KMSO 281653
MTRP69
METAR KP69 281652Z AUTO VRB03KT 15/10 A3030 RMK AO1 SLP255 T01500100





000
SAUS45 KMSO 281554
MTRP69
METAR KP69 281552Z AUTO 00000KT 13/09 A3031 RMK AO1 SLP261 T01330089





000
SAUS45 KMSO 281454
MTRP69
METAR KP69 281452Z AUTO 00000KT 13/09 A3031 RMK AO1 SLP261 T01280094
53012





000
SAUS45 KMSO 281454
MTRP69
METAR KP69 281452Z AUTO 00000KT 13/09 A3031 RMK AO1 SLP261 T01280094
53012





000
SAUS45 KMSO 281354
MTRP69
METAR KP69 281352Z AUTO 00000KT 12/11 A3030 RMK AO1 SLP258 T01170106





000
SAUS45 KMSO 281354
MTRP69
METAR KP69 281352Z AUTO 00000KT 12/11 A3030 RMK AO1 SLP258 T01170106





000
SAUS45 KMSO 281254
MTRP69
METAR KP69 281252Z AUTO 34004KT 12/10 A3028 RMK AO1 SLP252 T01170100





000
SAUS45 KMSO 281254
MTRP69
METAR KP69 281252Z AUTO 34004KT 12/10 A3028 RMK AO1 SLP252 T01170100





000
SAUS45 KMSO 281153
MTRP69
METAR KP69 281152Z AUTO 00000KT 12/11 A3027 RMK AO1 SLP247 60005
70024 T01170106 10128 20111 51008





000
SAUS45 KMSO 281153
MTRP69
METAR KP69 281152Z AUTO 00000KT 12/11 A3027 RMK AO1 SLP247 60005
70024 T01170106 10128 20111 51008





000
SAUS45 KMSO 281053
MTRP69
METAR KP69 281052Z AUTO 00000KT 12/11 A3027 RMK AO1 SLP244 T01170106





000
SAUS45 KMSO 280953
MTRP69
METAR KP69 280952Z AUTO 00000KT 12/11 A3026 RMK AO1 SLP241 T01170106





000
SAUS45 KMSO 280853
MTRP69
METAR KP69 280852Z AUTO 34003KT 12/11 A3025 RMK AO1 SLP236 60005
T01170106 53004





000
SAUS45 KMSO 280753
MTRP69
METAR KP69 280752Z AUTO 00000KT 12/11 A3024 RMK AO1 SLP231 P0001
T01170111 402610117





000
SAUS45 KMSO 280753
MTRP69
METAR KP69 280752Z AUTO 00000KT 12/11 A3024 RMK AO1 SLP231 P0001
T01170111 402610117





000
SAUS45 KMSO 280654
MTRP69
METAR KP69 280652Z AUTO VRB03KT 13/11 A3024 RMK AO1 SLP229 P0004
T01280111





000
SAUS45 KMSO 280554
MTRP69
METAR KP69 280552Z AUTO 00000KT 12/11 A3024 RMK AO1 SLP230 60003
T01220111 10167 20122 51022





000
SAUS45 KMSO 280554
MTRP69
METAR KP69 280552Z AUTO 00000KT 12/11 A3024 RMK AO1 SLP230 60003
T01220111 10167 20122 51022





000
SAUS45 KMSO 280453
MTRP69
METAR KP69 280452Z AUTO 00000KT 13/12 A3022 RMK AO1 SLP225 T01280117





000
SAUS45 KMSO 280354
MTRP69
METAR KP69 280352Z AUTO 34003KT 13/12 A3019 RMK AO1 SLP215 P0002
T01280117





000
SAUS45 KMSO 280254
MTRP69
METAR KP69 280252Z AUTO 35003KT 13/12 A3017 RMK AO1 SLP208 P0001
60001 T01330122 53015





000
SAUS45 KMSO 280254
MTRP69
METAR KP69 280252Z AUTO 35003KT 13/12 A3017 RMK AO1 SLP208 P0001
60001 T01330122 53015





000
SAUS45 KMSO 280154
MTRP69
METAR KP69 280152Z AUTO 35003KT 14/12 A3015 RMK AO1 SLP201 T01390117





000
SAUS45 KMSO 280053
MTRP69
METAR KP69 280052Z AUTO 00000KT 14/12 A3013 RMK AO1 SLP194 T01390122





000
SAUS45 KMSO 272354
MTRP69
METAR KP69 272352Z AUTO VRB04KT 16/13 A3012 RMK AO1 SLP190 P0007
60016 T01610128 10261 20128 53021





000
SAUS45 KMSO 272254
MTRP69
METAR KP69 272252Z AUTO 35003KT 16/13 A3009 RMK AO1 SLP179 P0003
T01610128





000
SAUS45 KMSO 272254
MTRP69
METAR KP69 272252Z AUTO 35003KT 16/13 A3009 RMK AO1 SLP179 P0003
T01610128





000
SAUS45 KMSO 272154
MTRP69
METAR KP69 272152Z AUTO 00000KT 16/13 A3007 RMK AO1 SLP174 P0005
T01610128





000
SAUS45 KMSO 272053
MTRP69
METAR KP69 272052Z AUTO 21004KT 17/09 A3005 RMK AO1 PRESRR SLP166
P0001 60001 T01720094 53003





000
SAUS45 KMSO 272053
MTRP69
METAR KP69 272052Z AUTO 21004KT 17/09 A3005 RMK AO1 PRESRR SLP166
P0001 60001 T01720094 53003





000
SAUS45 KMSO 271954
MTRP69
METAR KP69 271952Z AUTO 03003KT 21/06 A3001 RMK AO1 SLP146 T02110061





000
SAUS45 KMSO 271954
MTRP69
METAR KP69 271952Z AUTO 03003KT 21/06 A3001 RMK AO1 SLP146 T02110061





000
SAUS45 KMSO 271854
MTRP69
METAR KP69 271852Z AUTO 00000KT 20/06 A3003 RMK AO1 SLP153 T02000056





000
SAUS45 KMSO 271754
MTRP69
METAR KP69 271752Z AUTO VRB05KT 19/06 A3004 RMK AO1 SLP160 T01890061
10194 20156 50014





000
SAUS45 KMSO 271754
MTRP69
METAR KP69 271752Z AUTO VRB05KT 19/06 A3004 RMK AO1 SLP160 T01890061
10194 20156 50014





000
SAUS45 KMSO 271654
MTRP69
METAR KP69 271652Z AUTO 00000KT 18/06 A3005 RMK AO1 SLP161 T01830061





000
SAUS45 KMSO 271654
MTRP69
METAR KP69 271652Z AUTO 00000KT 18/06 A3005 RMK AO1 SLP161 T01830061





000
SAUS45 KMSO 271554
MTRP69
METAR KP69 271552Z AUTO 00000KT 17/10 A3004 RMK AO1 SLP158 T01720100





000
SAUS45 KMSO 271554
MTRP69
METAR KP69 271552Z AUTO 00000KT 17/10 A3004 RMK AO1 SLP158 T01720100





000
SAUS45 KMSO 271454
MTRP69
METAR KP69 271452Z AUTO 00000KT 16/11 A3000 RMK AO1 SLP145 T01610106
51015





000
SAUS45 KMSO 271454
MTRP69
METAR KP69 271452Z AUTO 00000KT 16/11 A3000 RMK AO1 SLP145 T01610106
51015





    US Dept of Commerce
    National Oceanic and Atmospheric Administration
    National Weather Service
    1325 East West Highway
    Silver Spring, MD 20910
    Page Author: NWS Internet Services Team
Disclaimer
Information Quality
Credits
Glossary
Privacy Policy
Freedom of Information Act (FOIA)
About Us
Career Opportunities